Time;durP1;ratioP1;P1;durP2;ratioP2;P2;SDS_P1;SDS_P2;PMS_P1;PMS_P2;Temp;Humidity;BMP_temperature;BMP_pressure;BME280_temperature;BME280_humidity;BME280_pressure;Samples;Min_cycle;Max_cycle;Signal;HPM_P1;HPM_P2
2023/05/26 00:01:20;;;;;;;10.80;1.42;;;;;;;;;;5067442;28;20072;-81
2023/05/26 00:03:48;;;;;;;15.63;2.63;;;;;;;;;;5063741;28;20052;-81
2023/05/26 00:06:15;;;;;;;18.02;2.22;;;;;;;;;;5085479;28;20082;-81
2023/05/26 00:08:41;;;;;;;13.13;2.13;;;;;;;;;;5083614;28;20048;-81
2023/05/26 00:11:08;;;;;;;14.20;2.20;;;;;;;;;;5102967;28;20044;-81
2023/05/26 00:13:34;;;;;;;14.73;1.95;;;;;;;;;;5102869;28;20048;-82
2023/05/26 00:16:03;;;;;;;12.20;1.52;;;;;;;;;;5093496;28;20045;-81
2023/05/26 00:18:29;;;;;;;13.27;2.67;;;;;;;;;;5102744;28;20044;-81
2023/05/26 00:20:56;;;;;;;11.98;1.90;;;;;;;;;;5102642;28;20055;-85
2023/05/26 00:23:23;;;;;;;13.32;2.00;;;;;;;;;;5083312;28;20445;-81
2023/05/26 00:25:49;;;;;;;18.50;2.42;;;;;;;;;;5102035;28;20048;-83
2023/05/26 00:28:16;;;;;;;14.70;1.92;;;;;;;;;;5100026;28;20047;-83
2023/05/26 00:30:42;;;;;;;12.32;1.67;;;;;;;;;;5083735;28;20378;-83
2023/05/26 00:33:08;;;;;;;12.27;1.77;;;;;;;;;;5080537;28;20078;-82
2023/05/26 00:35:34;;;;;;;16.52;2.15;;;;;;;;;;5064527;28;20102;-83
2023/05/26 00:41:23;;;;;;;12.63;1.80;;;;;;;;;;5100766;28;20085;-83
2023/05/26 00:43:51;;;;;;;10.65;1.65;;;;;;;;;;5065040;28;20106;-82
2023/05/26 00:46:17;;;;;;;13.82;1.80;;;;;;;;;;5081225;28;20056;-82
2023/05/26 00:48:43;;;;;;;9.85;1.30;;;;;;;;;;5077891;28;20048;-81
2023/05/26 00:51:11;;;;;;;12.35;1.75;;;;;;;;;;5103176;28;20052;-81
2023/05/26 00:53:42;;;;;;;13.45;1.52;;;;;;;;;;5101493;28;20044;-82
2023/05/26 00:56:11;;;;;;;11.90;1.55;;;;;;;;;;5101311;28;20055;-82
2023/05/26 00:58:38;;;;;;;12.80;1.48;;;;;;;;;;5100787;28;20051;-85
2023/05/26 01:01:04;;;;;;;17.42;2.22;;;;;;;;;;5064983;28;20075;-85
2023/05/26 01:03:30;;;;;;;16.10;2.30;;;;;;;;;;5098464;28;20032;-83
2023/05/26 01:05:56;;;;;;;19.05;2.35;;;;;;;;;;5100155;28;20068;-82
2023/05/26 01:08:22;;;;;;;12.15;1.85;;;;;;;;;;5098919;28;20078;-83
2023/05/26 01:10:48;;;;;;;13.68;1.92;;;;;;;;;;5079557;28;20041;-82
2023/05/26 01:13:20;;;;;;;16.80;2.33;;;;;;;;;;5080401;28;20068;-82
2023/05/26 01:15:51;;;;;;;16.05;2.35;;;;;;;;;;5079952;28;20104;-82
2023/05/26 01:18:24;;;;;;;19.42;2.53;;;;;;;;;;5079350;28;20040;-82
2023/05/26 01:20:57;;;;;;;17.83;2.63;;;;;;;;;;5075372;28;20044;-82
2023/05/26 01:23:23;;;;;;;21.02;2.30;;;;;;;;;;5097992;28;20071;-87
2023/05/26 01:26:00;;;;;;;9.38;2.45;;;;;;;;;;5099345;28;20064;-87
2023/05/26 01:28:30;;;;;;;18.55;2.53;;;;;;;;;;5082248;28;20052;-83
2023/05/26 01:30:56;;;;;;;16.23;2.13;;;;;;;;;;5087920;28;20048;-84
2023/05/26 01:33:22;;;;;;;16.00;2.70;;;;;;;;;;5079007;28;20134;-86
2023/05/26 01:35:48;;;;;;;12.23;1.90;;;;;;;;;;5078947;28;20095;-82
2023/05/26 01:38:14;;;;;;;15.10;2.33;;;;;;;;;;5077353;28;20039;-82
2023/05/26 01:40:41;;;;;;;21.58;2.45;;;;;;;;;;5064957;28;20056;-82
2023/05/26 01:43:20;;;;;;;8.88;1.70;;;;;;;;;;5087714;28;20048;-81
2023/05/26 01:45:54;;;;;;;12.93;1.67;;;;;;;;;;5095811;28;20048;-81
2023/05/26 01:48:21;;;;;;;13.60;2.22;;;;;;;;;;5095895;28;20127;-81
2023/05/26 01:50:53;;;;;;;13.05;1.50;;;;;;;;;;5087942;28;20119;-81
2023/05/26 01:53:21;;;;;;;17.35;2.15;;;;;;;;;;5074050;28;20165;-81
2023/05/26 01:55:49;;;;;;;11.10;1.58;;;;;;;;;;5062985;28;20462;-81
2023/05/26 01:58:15;;;;;;;18.98;2.30;;;;;;;;;;5075664;28;20461;-82
2023/05/26 02:00:47;;;;;;;19.70;2.35;;;;;;;;;;5088246;28;20543;-82
2023/05/26 02:03:15;;;;;;;12.00;2.47;;;;;;;;;;5080207;28;20045;-84
2023/05/26 02:05:41;;;;;;;13.68;2.00;;;;;;;;;;5082436;28;20067;-82
2023/05/26 02:08:10;;;;;;;13.10;2.13;;;;;;;;;;5060520;28;20102;-83
2023/05/26 02:10:36;;;;;;;19.42;2.00;;;;;;;;;;5077761;28;20040;-82
2023/05/26 02:13:02;;;;;;;14.40;2.13;;;;;;;;;;5059407;28;20523;-86
2023/05/26 02:15:28;;;;;;;11.88;2.70;;;;;;;;;;5075423;28;20049;-82
2023/05/26 02:17:57;;;;;;;13.75;3.10;;;;;;;;;;5057206;28;20044;-82
2023/05/26 02:20:23;;;;;;;14.18;2.08;;;;;;;;;;5077128;28;20578;-81
2023/05/26 02:22:49;;;;;;;13.27;1.67;;;;;;;;;;5078112;28;20489;-82
2023/05/26 02:25:16;;;;;;;13.15;1.90;;;;;;;;;;5092214;28;20445;-81
2023/05/26 02:27:42;;;;;;;13.70;2.33;;;;;;;;;;5080017;28;20508;-81
2023/05/26 02:30:08;;;;;;;16.10;2.22;;;;;;;;;;5070628;28;20076;-83
2023/05/26 02:32:36;;;;;;;16.60;1.90;;;;;;;;;;5081771;28;20123;-82
2023/05/26 02:35:03;;;;;;;15.30;1.85;;;;;;;;;;5088407;28;20039;-81
2023/05/26 02:37:30;;;;;;;18.08;2.08;;;;;;;;;;5083628;28;20062;-81
2023/05/26 02:39:56;;;;;;;14.52;2.13;;;;;;;;;;5101298;28;20105;-82
2023/05/26 02:42:23;;;;;;;12.25;2.38;;;;;;;;;;5101505;28;20051;-84
2023/05/26 02:44:49;;;;;;;11.02;2.45;;;;;;;;;;5080492;28;20036;-81
2023/05/26 02:47:15;;;;;;;16.83;2.45;;;;;;;;;;5064378;28;20044;-82
2023/05/26 02:49:42;;;;;;;15.32;2.25;;;;;;;;;;5045626;28;20064;-81
2023/05/26 02:52:08;;;;;;;13.52;1.98;;;;;;;;;;5062285;28;20388;-82
2023/05/26 02:54:35;;;;;;;18.17;2.00;;;;;;;;;;5079653;28;20049;-81
2023/05/26 02:57:06;;;;;;;18.25;2.08;;;;;;;;;;5063568;28;20040;-82
2023/05/26 02:59:32;;;;;;;16.20;2.10;;;;;;;;;;5063612;28;20047;-81
2023/05/26 03:02:03;;;;;;;15.05;2.00;;;;;;;;;;5080963;28;20115;-82
2023/05/26 03:04:30;;;;;;;19.35;3.55;;;;;;;;;;5080624;28;20045;-82
2023/05/26 03:06:56;;;;;;;14.10;1.80;;;;;;;;;;5047316;28;20401;-82
2023/05/26 03:09:22;;;;;;;20.17;2.25;;;;;;;;;;5080029;28;20048;-85
2023/05/26 03:11:48;;;;;;;24.33;3.35;;;;;;;;;;5080844;28;20089;-81
2023/05/26 03:14:15;;;;;;;13.77;2.20;;;;;;;;;;5099692;28;20044;-83
2023/05/26 03:16:43;;;;;;;17.48;2.22;;;;;;;;;;5085082;28;20061;-81
2023/05/26 03:19:09;;;;;;;12.77;1.75;;;;;;;;;;5074677;28;20075;-83
2023/05/26 03:28:43;;;;;;;11.65;1.77;;;;;;;;;;5088416;28;20062;-83
2023/05/26 03:31:11;;;;;;;9.57;1.65;;;;;;;;;;5067158;28;20178;-82
2023/05/26 03:33:40;;;;;;;10.02;1.92;;;;;;;;;;5082352;28;20394;-81
2023/05/26 03:36:08;;;;;;;10.38;1.92;;;;;;;;;;5080715;28;20044;-81
2023/05/26 03:38:34;;;;;;;12.27;2.08;;;;;;;;;;5061006;28;20052;-82
2023/05/26 03:41:00;;;;;;;17.05;1.85;;;;;;;;;;5057851;28;20125;-82
2023/05/26 03:43:26;;;;;;;13.98;2.08;;;;;;;;;;5099843;28;20047;-82
2023/05/26 03:45:52;;;;;;;11.35;1.67;;;;;;;;;;5078969;28;20468;-81
2023/05/26 03:48:22;;;;;;;13.95;1.83;;;;;;;;;;5080421;28;20662;-82
2023/05/26 03:50:48;;;;;;;15.00;1.88;;;;;;;;;;5069003;28;20040;-82
2023/05/26 03:53:14;;;;;;;8.77;1.75;;;;;;;;;;5077479;28;20078;-82
2023/05/26 03:55:40;;;;;;;14.18;1.48;;;;;;;;;;5059519;28;20063;-81
2023/05/26 03:58:06;;;;;;;9.77;1.92;;;;;;;;;;5077087;28;20058;-81
2023/05/26 04:00:35;;;;;;;9.90;1.70;;;;;;;;;;5078331;28;20088;-81
2023/05/26 04:03:01;;;;;;;18.20;2.20;;;;;;;;;;5058302;28;20141;-83
2023/05/26 04:05:27;;;;;;;12.82;1.92;;;;;;;;;;5076166;28;20048;-81
2023/05/26 04:07:53;;;;;;;7.45;1.23;;;;;;;;;;5072183;28;20054;-81
2023/05/26 04:10:19;;;;;;;12.43;1.50;;;;;;;;;;5096211;28;20048;-81
2023/05/26 04:12:48;;;;;;;10.85;2.20;;;;;;;;;;5094704;28;20484;-81
2023/05/26 04:15:16;;;;;;;10.35;1.63;;;;;;;;;;5082060;28;20044;-81
2023/05/26 04:17:45;;;;;;;15.10;2.05;;;;;;;;;;5083825;28;20108;-81
2023/05/26 04:20:11;;;;;;;8.35;1.58;;;;;;;;;;5082201;28;20060;-81
2023/05/26 04:22:38;;;;;;;15.38;1.77;;;;;;;;;;5084391;28;20040;-80
2023/05/26 04:25:13;;;;;;;13.85;1.30;;;;;;;;;;5019715;28;20062;-81
2023/05/26 04:27:42;;;;;;;20.23;2.65;;;;;;;;;;5018077;28;20506;-81
2023/05/26 04:30:11;;;;;;;15.50;1.70;;;;;;;;;;5016723;28;20057;-81
2023/05/26 04:32:48;;;;;;;11.98;1.48;;;;;;;;;;5017289;28;20041;-81
2023/05/26 04:35:14;;;;;;;16.75;2.08;;;;;;;;;;5018418;28;20050;-82
2023/05/26 04:37:40;;;;;;;18.27;2.13;;;;;;;;;;5008716;28;20060;-82
2023/05/26 04:40:10;;;;;;;12.15;2.08;;;;;;;;;;5008407;28;20053;-88
2023/05/26 04:42:36;;;;;;;12.65;2.38;;;;;;;;;;5012448;28;20045;-81
2023/05/26 04:45:03;;;;;;;16.27;2.08;;;;;;;;;;5003893;28;20045;-81
2023/05/26 04:47:32;;;;;;;10.10;1.58;;;;;;;;;;5023425;28;20046;-82
2023/05/26 04:49:59;;;;;;;14.93;2.63;;;;;;;;;;5025832;28;20053;-82
2023/05/26 04:59:09;;;;;;;11.68;1.67;;;;;;;;;;5103816;28;20066;-87
2023/05/26 05:01:35;;;;;;;13.07;2.50;;;;;;;;;;5083808;28;20048;-83
2023/05/26 05:04:01;;;;;;;16.42;2.42;;;;;;;;;;5100927;28;20500;-82
2023/05/26 05:06:29;;;;;;;14.75;2.05;;;;;;;;;;5090005;28;20051;-82
2023/05/26 05:08:55;;;;;;;11.43;1.75;;;;;;;;;;5081738;28;20045;-83
2023/05/26 05:11:24;;;;;;;16.58;2.25;;;;;;;;;;5082756;28;20416;-84
2023/05/26 05:13:51;;;;;;;17.80;2.08;;;;;;;;;;5065386;28;20056;-84
2023/05/26 05:16:17;;;;;;;10.80;1.77;;;;;;;;;;5091890;28;20048;-84
2023/05/26 05:18:44;;;;;;;14.15;2.58;;;;;;;;;;5098873;28;20040;-82
2023/05/26 05:21:12;;;;;;;13.38;2.08;;;;;;;;;;5080015;28;20536;-81
2023/05/26 05:23:38;;;;;;;13.25;2.28;;;;;;;;;;5080939;28;20510;-86
2023/05/26 05:26:05;;;;;;;8.65;1.60;;;;;;;;;;5081650;28;20041;-84
2023/05/26 05:28:31;;;;;;;11.32;1.70;;;;;;;;;;5093036;28;20047;-81
2023/05/26 05:30:59;;;;;;;12.73;1.40;;;;;;;;;;5101033;28;20059;-84
2023/05/26 05:33:27;;;;;;;21.23;3.53;;;;;;;;;;5101772;28;20036;-81
2023/05/26 05:35:53;;;;;;;9.68;1.85;;;;;;;;;;5083881;28;20059;-81
2023/05/26 05:38:21;;;;;;;15.43;1.95;;;;;;;;;;5088488;28;20055;-86
2023/05/26 05:40:47;;;;;;;12.57;1.80;;;;;;;;;;5063178;28;20040;-82
2023/05/26 05:43:13;;;;;;;15.57;1.95;;;;;;;;;;5061501;28;20059;-88
2023/05/26 05:45:44;;;;;;;10.77;2.40;;;;;;;;;;5080172;28;20554;-82
2023/05/26 05:48:13;;;;;;;9.27;1.75;;;;;;;;;;5081142;28;20060;-83
2023/05/26 05:50:40;;;;;;;12.18;2.13;;;;;;;;;;5064336;28;20479;-82
2023/05/26 05:53:07;;;;;;;9.48;1.30;;;;;;;;;;5079751;28;20041;-83
2023/05/26 05:55:36;;;;;;;6.53;1.30;;;;;;;;;;5063450;28;20122;-82
2023/05/26 05:58:02;;;;;;;14.30;1.40;;;;;;;;;;5063981;28;20488;-83
2023/05/26 06:00:29;;;;;;;13.57;1.58;;;;;;;;;;5062083;28;20044;-82
2023/05/26 06:02:55;;;;;;;11.70;1.55;;;;;;;;;;5088728;28;20055;-83
2023/05/26 06:05:22;;;;;;;12.15;1.98;;;;;;;;;;5077482;28;20048;-84
2023/05/26 06:18:06;;;;;;;17.17;2.08;;;;;;;;;;5081660;28;20059;-84
2023/05/26 06:20:32;;;;;;;10.88;1.85;;;;;;;;;;5063803;28;20087;-83
2023/05/26 06:23:01;;;;;;;8.23;1.30;;;;;;;;;;5063488;28;20048;-83
2023/05/26 06:25:29;;;;;;;8.75;1.85;;;;;;;;;;5062507;28;20544;-83
2023/05/26 06:27:55;;;;;;;9.52;1.50;;;;;;;;;;5059835;28;20049;-86
2023/05/26 06:30:21;;;;;;;11.35;1.52;;;;;;;;;;5060925;28;20052;-88
2023/05/26 06:32:47;;;;;;;7.40;1.63;;;;;;;;;;5070356;28;20040;-83
2023/05/26 06:35:13;;;;;;;11.23;1.40;;;;;;;;;;5088780;28;20079;-82
2023/05/26 06:37:39;;;;;;;6.55;1.40;;;;;;;;;;5076204;28;20051;-82
2023/05/26 06:40:05;;;;;;;6.13;1.80;;;;;;;;;;5094890;28;20408;-86
2023/05/26 06:42:32;;;;;;;12.90;1.25;;;;;;;;;;5080263;28;20102;-83
2023/05/26 06:44:58;;;;;;;10.38;1.63;;;;;;;;;;5056789;28;20431;-83
2023/05/26 06:47:24;;;;;;;9.63;1.40;;;;;;;;;;5072703;28;20079;-85
2023/05/26 06:49:50;;;;;;;7.75;1.75;;;;;;;;;;5077454;28;20064;-83
2023/05/26 06:52:17;;;;;;;9.88;1.38;;;;;;;;;;5079291;28;20040;-88
2023/05/26 06:54:43;;;;;;;19.55;1.77;;;;;;;;;;5090232;28;20441;-82
2023/05/26 06:57:09;;;;;;;8.07;1.48;;;;;;;;;;5094061;28;20040;-81
2023/05/26 06:59:35;;;;;;;7.28;1.10;;;;;;;;;;5092584;28;20119;-82
2023/05/26 07:02:02;;;;;;;12.43;1.35;;;;;;;;;;5091379;28;20051;-83
2023/05/26 07:04:28;;;;;;;8.55;1.58;;;;;;;;;;5092288;28;20055;-85
2023/05/26 07:06:54;;;;;;;8.30;1.40;;;;;;;;;;5093120;28;20047;-83
2023/05/26 07:09:21;;;;;;;15.57;1.67;;;;;;;;;;5062609;28;20052;-83
2023/05/26 07:11:47;;;;;;;8.00;1.48;;;;;;;;;;5072504;28;20045;-83
2023/05/26 07:14:13;;;;;;;9.52;1.75;;;;;;;;;;5084189;28;20048;-81
2023/05/26 07:16:39;;;;;;;6.13;1.17;;;;;;;;;;5085978;28;20047;-84
2023/05/26 07:19:05;;;;;;;9.50;1.35;;;;;;;;;;5079787;28;20140;-84
2023/05/26 07:21:32;;;;;;;12.23;1.20;;;;;;;;;;5094041;28;20040;-85
2023/05/26 07:23:58;;;;;;;8.55;1.13;;;;;;;;;;5087101;28;20102;-84
2023/05/26 07:26:25;;;;;;;9.00;1.83;;;;;;;;;;5076806;28;20047;-83
2023/05/26 07:28:51;;;;;;;8.63;1.48;;;;;;;;;;5077273;28;20427;-84
2023/05/26 07:31:18;;;;;;;7.47;1.23;;;;;;;;;;5077755;28;20055;-83
2023/05/26 07:33:44;;;;;;;7.47;0.80;;;;;;;;;;5065075;28;20036;-86
2023/05/26 07:36:10;;;;;;;10.68;1.40;;;;;;;;;;5060817;28;20076;-85
2023/05/26 07:38:36;;;;;;;9.52;1.52;;;;;;;;;;5078215;28;20048;-86
2023/05/26 07:41:02;;;;;;;10.70;1.75;;;;;;;;;;5076303;28;20048;-91
2023/05/26 07:43:28;;;;;;;9.75;1.00;;;;;;;;;;5060717;28;20048;-85
2023/05/26 07:45:59;;;;;;;7.78;1.17;;;;;;;;;;5085985;28;20047;-86
2023/05/26 07:48:25;;;;;;;8.20;1.40;;;;;;;;;;5094655;28;20040;-88
2023/05/26 07:50:51;;;;;;;6.60;0.90;;;;;;;;;;5078502;28;20161;-87
2023/05/26 07:53:18;;;;;;;8.98;1.30;;;;;;;;;;5060542;28;20052;-85
2023/05/26 07:55:44;;;;;;;6.18;1.10;;;;;;;;;;5094626;28;20459;-86
2023/05/26 07:58:10;;;;;;;5.28;0.90;;;;;;;;;;5077904;28;20056;-84
2023/05/26 08:00:39;;;;;;;6.22;1.02;;;;;;;;;;5081708;28;20048;-83
2023/05/26 08:03:08;;;;;;;11.38;1.65;;;;;;;;;;5100436;28;20044;-88
2023/05/26 08:05:34;;;;;;;7.85;1.42;;;;;;;;;;5076069;28;20052;-86
2023/05/26 08:14:46;;;;;;;9.18;1.40;;;;;;;;;;5100170;28;20055;-85
2023/05/26 08:17:15;;;;;;;7.43;1.52;;;;;;;;;;5094359;28;20040;-83
2023/05/26 08:19:41;;;;;;;11.43;1.10;;;;;;;;;;5074888;28;20054;-82
2023/05/26 08:22:07;;;;;;;10.52;1.52;;;;;;;;;;5057001;28;20056;-86
2023/05/26 08:24:33;;;;;;;7.00;1.00;;;;;;;;;;5056810;28;20136;-86
2023/05/26 08:26:59;;;;;;;6.07;1.10;;;;;;;;;;5075647;28;20059;-85
2023/05/26 08:29:25;;;;;;;8.93;1.80;;;;;;;;;;5055737;28;20036;-87
2023/05/26 08:31:51;;;;;;;10.20;1.42;;;;;;;;;;5075795;28;20087;-87
2023/05/26 08:34:17;;;;;;;4.93;1.08;;;;;;;;;;5077589;28;20052;-85
2023/05/26 08:36:43;;;;;;;7.90;1.13;;;;;;;;;;5076845;28;20161;-86
2023/05/26 08:39:10;;;;;;;6.63;1.05;;;;;;;;;;5071087;28;20075;-86
2023/05/26 08:41:48;;;;;;;12.55;1.42;;;;;;;;;;5056675;28;20036;-86
2023/05/26 08:44:16;;;;;;;8.38;3.28;;;;;;;;;;5057806;28;20052;-83
2023/05/26 08:46:44;;;;;;;9.88;1.27;;;;;;;;;;5075950;28;20048;-86
2023/05/26 08:49:11;;;;;;;6.45;1.85;;;;;;;;;;5040633;28;20117;-85
2023/05/26 08:51:40;;;;;;;8.20;1.40;;;;;;;;;;5073980;28;20049;-84
2023/05/26 08:54:06;;;;;;;12.80;2.70;;;;;;;;;;5056207;28;20040;-87
2023/05/26 08:56:32;;;;;;;8.70;1.60;;;;;;;;;;5055888;28;20194;-84
2023/05/26 08:59:00;;;;;;;6.68;0.90;;;;;;;;;;5056642;28;20049;-84
2023/05/26 09:01:26;;;;;;;11.27;1.55;;;;;;;;;;5084495;28;20071;-84
2023/05/26 09:03:52;;;;;;;15.98;1.50;;;;;;;;;;5093403;28;20047;-84
2023/05/26 09:06:18;;;;;;;8.18;1.58;;;;;;;;;;5093757;28;20051;-84
2023/05/26 09:08:45;;;;;;;6.05;1.17;;;;;;;;;;5075873;28;20051;-84
2023/05/26 09:11:24;;;;;;;5.03;1.00;;;;;;;;;;5091838;28;20147;-84
2023/05/26 09:13:53;;;;;;;8.88;1.40;;;;;;;;;;5093304;28;20062;-85
2023/05/26 09:16:21;;;;;;;8.73;1.23;;;;;;;;;;5093714;28;20051;-83
2023/05/26 09:18:47;;;;;;;9.35;1.75;;;;;;;;;;5093563;28;20093;-83
2023/05/26 09:21:13;;;;;;;9.48;1.33;;;;;;;;;;5091999;28;20048;-83
2023/05/26 09:23:39;;;;;;;8.15;0.95;;;;;;;;;;5075133;28;20079;-84
2023/05/26 09:26:11;;;;;;;6.95;1.00;;;;;;;;;;5093604;28;20044;-84
2023/05/26 09:28:47;;;;;;;7.57;1.42;;;;;;;;;;5093398;28;20040;-84
2023/05/26 09:31:13;;;;;;;10.30;1.20;;;;;;;;;;5091625;28;20040;-85
2023/05/26 09:33:44;;;;;;;10.20;1.33;;;;;;;;;;5081806;28;20047;-84
2023/05/26 09:36:10;;;;;;;7.10;1.45;;;;;;;;;;5072865;28;20531;-84
2023/05/26 09:38:36;;;;;;;9.40;1.88;;;;;;;;;;5077097;28;20047;-84
2023/05/26 09:41:02;;;;;;;7.72;1.30;;;;;;;;;;5094343;28;20450;-86
2023/05/26 09:43:33;;;;;;;10.60;1.60;;;;;;;;;;5073214;28;20040;-86
2023/05/26 09:45:59;;;;;;;11.73;1.38;;;;;;;;;;5074483;28;20128;-84
2023/05/26 09:48:25;;;;;;;7.72;1.20;;;;;;;;;;5075133;28;20051;-84
2023/05/26 09:50:52;;;;;;;11.85;1.33;;;;;;;;;;5092829;28;20056;-85
2023/05/26 09:53:18;;;;;;;12.63;1.90;;;;;;;;;;5089051;28;20051;-82
2023/05/26 09:55:45;;;;;;;13.18;3.00;;;;;;;;;;5092331;28;20051;-86
2023/05/26 09:58:12;;;;;;;10.95;1.85;;;;;;;;;;5054439;28;20056;-85
2023/05/26 10:00:40;;;;;;;10.55;1.50;;;;;;;;;;5084968;28;20126;-83
2023/05/26 10:03:07;;;;;;;7.93;1.73;;;;;;;;;;5074370;28;20044;-83
2023/05/26 10:05:34;;;;;;;11.75;1.85;;;;;;;;;;5073701;28;20052;-82
2023/05/26 10:08:01;;;;;;;7.93;1.17;;;;;;;;;;5055551;28;20056;-84
2023/05/26 10:10:29;;;;;;;4.70;1.10;;;;;;;;;;5072640;28;20040;-84
2023/05/26 10:12:55;;;;;;;8.43;1.20;;;;;;;;;;5072529;28;20084;-83
2023/05/26 10:15:21;;;;;;;8.00;1.77;;;;;;;;;;5073600;28;20450;-83
2023/05/26 10:17:48;;;;;;;6.63;1.70;;;;;;;;;;5054264;28;20044;-83
2023/05/26 10:20:14;;;;;;;6.93;1.05;;;;;;;;;;5065007;28;20048;-84
2023/05/26 10:22:45;;;;;;;14.38;1.98;;;;;;;;;;5074883;28;20040;-83
2023/05/26 10:25:11;;;;;;;5.88;1.63;;;;;;;;;;5088155;28;20052;-82
2023/05/26 10:27:45;;;;;;;5.97;1.30;;;;;;;;;;5072572;28;20049;-84
2023/05/26 10:30:12;;;;;;;9.15;1.55;;;;;;;;;;5071863;28;20503;-84
2023/05/26 10:32:42;;;;;;;42.35;2.58;;;;;;;;;;5072274;28;20507;-84
2023/05/26 10:35:28;;;;;;;7.72;1.23;;;;;;;;;;5081333;28;20043;-85
2023/05/26 10:38:11;;;;;;;11.63;1.10;;;;;;;;;;5081643;28;20135;-83
2023/05/26 10:40:44;;;;;;;14.32;2.00;;;;;;;;;;5054652;28;20052;-85
2023/05/26 10:43:15;;;;;;;8.93;1.85;;;;;;;;;;5072894;28;20408;-84
2023/05/26 10:45:45;;;;;;;8.77;1.45;;;;;;;;;;5072446;28;20052;-84
2023/05/26 10:48:11;;;;;;;11.35;2.10;;;;;;;;;;5055175;28;20075;-83
2023/05/26 10:50:56;;;;;;;9.93;1.70;;;;;;;;;;5071509;28;20067;-83
2023/05/26 10:53:22;;;;;;;9.45;1.92;;;;;;;;;;5096273;28;20044;-84
2023/05/26 10:55:59;;;;;;;6.75;1.70;;;;;;;;;;5097105;28;20040;-85
2023/05/26 10:58:34;;;;;;;12.45;2.10;;;;;;;;;;5095095;28;20043;-84
2023/05/26 11:01:01;;;;;;;7.68;1.30;;;;;;;;;;5078098;28;20071;-84
2023/05/26 11:03:44;;;;;;;8.75;1.80;;;;;;;;;;5095823;28;20036;-83
2023/05/26 11:06:11;;;;;;;12.55;1.42;;;;;;;;;;5097387;28;20044;-83
2023/05/26 11:08:56;;;;;;;19.95;2.10;;;;;;;;;;5077915;28;20140;-81
2023/05/26 11:11:29;;;;;;;9.52;1.80;;;;;;;;;;5077996;28;20050;-83
2023/05/26 11:14:05;;;;;;;9.13;1.80;;;;;;;;;;5095310;28;20374;-85
2023/05/26 11:16:35;;;;;;;10.05;1.55;;;;;;;;;;5072482;28;20063;-85
2023/05/26 11:19:03;;;;;;;6.90;1.40;;;;;;;;;;5057799;28;20071;-82
2023/05/26 11:21:31;;;;;;;11.32;1.90;;;;;;;;;;5075654;28;20047;-86
2023/05/26 11:23:58;;;;;;;11.25;1.40;;;;;;;;;;5046248;28;20044;-82
2023/05/26 11:26:25;;;;;;;11.43;1.60;;;;;;;;;;5075585;28;20036;-83
2023/05/26 11:28:52;;;;;;;8.32;1.20;;;;;;;;;;5075490;28;20435;-83
2023/05/26 11:31:19;;;;;;;10.10;1.88;;;;;;;;;;5075607;28;20342;-84
2023/05/26 11:33:45;;;;;;;10.20;2.10;;;;;;;;;;5075899;28;20076;-84
2023/05/26 11:36:12;;;;;;;6.90;1.30;;;;;;;;;;5076029;28;20500;-84
2023/05/26 11:38:39;;;;;;;11.05;1.73;;;;;;;;;;5076572;28;20046;-88
2023/05/26 11:41:09;;;;;;;12.68;1.73;;;;;;;;;;5058463;28;20040;-86
2023/05/26 11:43:36;;;;;;;14.90;2.20;;;;;;;;;;5076140;28;20048;-85
2023/05/26 11:46:07;;;;;;;10.15;1.92;;;;;;;;;;5089480;28;20134;-89
2023/05/26 11:48:35;;;;;;;9.32;1.48;;;;;;;;;;5112212;28;20020;-85
2023/05/26 11:51:21;;;;;;;7.03;1.20;;;;;;;;;;5089465;28;20439;-89
2023/05/26 11:53:54;;;;;;;12.10;2.15;;;17.30;99.30;;;;;;5099960;28;20044;-86
2023/05/26 11:56:20;;;;;;;10.25;1.50;;;17.50;99.20;;;;;;5095729;28;20041;-87
2023/05/26 11:58:47;;;;;;;7.25;1.70;;;;;;;;;;5078719;28;20040;-88
2023/05/26 12:01:14;;;;;;;8.18;1.40;;;17.10;98.10;;;;;;5098077;28;20032;-86
2023/05/26 12:03:45;;;;;;;7.93;1.30;;;17.00;99.90;;;;;;5066840;28;20048;-88
2023/05/26 12:06:22;;;;;;;9.38;1.83;;;17.30;98.90;;;;;;5088072;28;20088;-85
2023/05/26 12:08:54;;;;;;;8.18;1.80;;;17.00;99.70;;;;;;5088739;28;20052;-84
2023/05/26 12:11:23;;;;;;;13.23;2.00;;;17.00;99.90;;;;;;5087363;28;20097;-88
2023/05/26 12:14:02;;;;;;;12.73;1.85;;;16.90;99.10;;;;;;5088632;28;20048;-85
2023/05/26 12:16:35;;;;;;;9.63;1.52;;;16.70;99.90;;;;;;5089984;28;20051;-86
2023/05/26 12:19:03;;;;;;;8.57;1.20;;;16.80;99.90;;;;;;5076677;28;20045;-85
2023/05/26 12:21:30;;;;;;;8.43;1.70;;;16.70;99.90;;;;;;5065306;28;20059;-87
2023/05/26 12:23:58;;;;;;;8.75;2.30;;;16.70;99.50;;;;;;5062666;28;20049;-88
2023/05/26 12:26:27;;;;;;;10.48;2.08;;;16.50;98.90;;;;;;5064222;28;20055;-87
2023/05/26 12:29:12;;;;;;;8.52;1.83;;;16.40;99.90;;;;;;5065340;28;20073;-86
2023/05/26 12:31:48;;;;;;;9.60;1.75;;;16.50;99.90;;;;;;5063860;28;20051;-89
2023/05/26 12:34:18;;;;;;;8.73;2.05;;;17.00;99.90;;;;;;5064626;28;20040;-87
2023/05/26 12:36:45;;;;;;;13.85;2.15;;;17.00;99.90;;;;;;5088204;28;20170;-85
2023/05/26 12:39:13;;;;;;;10.43;2.70;;;16.70;99.90;;;;;;5059067;28;20098;-85
2023/05/26 12:41:40;;;;;;;12.90;2.00;;;16.90;99.90;;;;;;5056346;28;20556;-85
2023/05/26 12:44:09;;;;;;;12.60;2.22;;;16.80;99.90;;;;;;5073893;28;20032;-83
2023/05/26 12:46:38;;;;;;;12.23;2.45;;;16.70;99.90;;;;;;5073870;28;20132;-84
2023/05/26 12:49:03;;;;;;;11.27;2.30;;;16.80;99.90;;;;;;5055655;28;20110;-81
2023/05/26 12:51:29;;;;;;;12.52;2.38;;;16.80;99.90;;;;;;5088436;28;20056;-84
2023/05/26 12:53:55;;;;;;;11.55;1.80;;;16.60;99.90;;;;;;5094047;28;20036;-84
2023/05/26 12:56:21;;;;;;;16.83;2.75;;;16.80;99.90;;;;;;5093762;28;20055;-82
2023/05/26 12:58:47;;;;;;;12.80;2.17;;;16.80;99.90;;;;;;5074834;28;20079;-82
2023/05/26 13:01:14;;;;;;;13.43;1.95;;;16.70;99.90;;;;;;5084712;28;20097;-87
2023/05/26 13:03:41;;;;;;;14.52;2.60;;;16.70;99.90;;;;;;5069310;28;20036;-83
2023/05/26 13:06:08;;;;;;;10.50;1.98;;;16.50;99.90;;;;;;5093882;28;20062;-83
2023/05/26 13:08:35;;;;;;;11.93;2.35;;;16.40;99.90;;;;;;5093588;28;20040;-82
2023/05/26 13:11:02;;;;;;;14.38;2.33;;;16.40;99.90;;;;;;5075842;28;20056;-86
2023/05/26 13:13:28;;;;;;;11.00;3.25;;;16.40;99.90;;;;;;5093775;28;20100;-83
2023/05/26 13:15:54;;;;;;;13.18;1.95;;;16.40;99.90;;;;;;5093332;28;20047;-82
2023/05/26 13:18:20;;;;;;;10.75;2.00;;;16.20;99.90;;;;;;5092303;28;20046;-83
2023/05/26 13:20:46;;;;;;;11.82;1.98;;;16.40;99.90;;;;;;5094167;28;20048;-82
2023/05/26 13:23:12;;;;;;;18.80;2.80;;;16.50;99.90;;;;;;5075332;28;20048;-83
2023/05/26 13:25:38;;;;;;;18.70;2.83;;;16.50;99.90;;;;;;5066461;28;20075;-83
2023/05/26 13:28:04;;;;;;;12.20;2.10;;;16.50;99.90;;;;;;5073201;28;20469;-84
2023/05/26 13:30:29;;;;;;;10.15;1.55;;;16.50;99.90;;;;;;5072648;28;20048;-85
2023/05/26 13:32:56;;;;;;;19.98;4.18;;;16.50;99.90;;;;;;5069123;28;20401;-85
2023/05/26 13:35:22;;;;;;;13.98;2.70;;;16.50;99.90;;;;;;5058589;28;20047;-85
2023/05/26 13:37:50;;;;;;;12.18;1.52;;;16.60;99.90;;;;;;5074333;28;20035;-85
2023/05/26 13:40:19;;;;;;;10.43;1.80;;;16.30;99.90;;;;;;5058400;28;20054;-84
2023/05/26 13:42:48;;;;;;;10.50;2.15;;;16.40;99.90;;;;;;5093211;28;20488;-85
2023/05/26 13:45:15;;;;;;;7.43;1.55;;;16.50;99.90;;;;;;5092269;28;20044;-84
2023/05/26 13:47:42;;;;;;;11.20;1.98;;;17.10;99.90;;;;;;5074140;28;20105;-84
2023/05/26 13:50:08;;;;;;;12.30;1.90;;;16.40;99.90;;;;;;5092846;28;20056;-85
2023/05/26 13:52:35;;;;;;;10.35;1.73;;;16.70;99.90;;;;;;5092961;28;20105;-83
2023/05/26 13:55:01;;;;;;;8.63;1.75;;;16.60;99.90;;;;;;5073997;28;20028;-84
2023/05/26 13:57:32;;;;;;;9.02;1.55;;;16.80;99.90;;;;;;5092456;28;20051;-85
2023/05/26 13:59:59;;;;;;;12.57;2.20;;;16.80;99.90;;;;;;5054881;28;20492;-83
2023/05/26 14:02:25;;;;;;;9.38;1.52;;;16.50;99.90;;;;;;5072781;28;20072;-85
2023/05/26 14:04:51;;;;;;;5.53;1.60;;;16.60;99.90;;;;;;5055102;28;20040;-84
2023/05/26 14:07:17;;;;;;;6.13;1.60;;;16.50;99.90;;;;;;5054957;28;20080;-85
2023/05/26 14:09:44;;;;;;;12.43;2.03;;;16.50;99.90;;;;;;5072635;28;20076;-86
2023/05/26 14:12:12;;;;;;;9.65;1.83;;;16.40;99.90;;;;;;5054649;28;20056;-86
2023/05/26 14:14:38;;;;;;;7.68;1.30;;;16.20;99.90;;;;;;5072686;28;20059;-86
2023/05/26 14:17:04;;;;;;;9.05;1.85;;;16.80;99.90;;;;;;5072455;28;20045;-85
2023/05/26 14:19:29;;;;;;;8.55;1.83;;;16.90;99.70;;;;;;5072697;28;20047;-86
2023/05/26 14:21:55;;;;;;;10.57;2.00;;;17.10;99.90;;;;;;5053932;28;20048;-85
2023/05/26 14:24:21;;;;;;;8.98;1.80;;;17.00;99.90;;;;;;5053788;28;20044;-84
2023/05/26 14:26:47;;;;;;;8.73;1.98;;;17.20;99.90;;;;;;5074660;28;20405;-85
2023/05/26 14:29:13;;;;;;;6.97;1.92;;;16.70;98.40;;;;;;5076467;28;20493;-84
2023/05/26 14:31:38;;;;;;;12.13;2.42;;;16.60;99.90;;;;;;5076784;28;20048;-82
2023/05/26 14:34:04;;;;;;;8.80;2.38;;;17.10;99.60;;;;;;5082205;28;20074;-82
2023/05/26 14:36:31;;;;;;;5.97;1.40;;;17.50;99.20;;;;;;5097300;28;20044;-82
2023/05/26 14:38:59;;;;;;;9.50;1.52;;;17.90;99.90;;;;;;5078035;28;20079;-84
2023/05/26 14:41:26;;;;;;;8.45;1.40;;;18.10;98.80;;;;;;5080698;28;20044;-85
2023/05/26 14:43:51;;;;;;;10.48;1.60;;;18.30;98.50;;;;;;5086413;28;20044;-86
2023/05/26 14:46:18;;;;;;;10.20;1.80;;;18.40;98.70;;;;;;5077132;28;20590;-85